createdAt,value
2019-02-22T00:00:18.914Z,71.31
2019-02-22T00:02:46.739Z,71.06
2019-02-22T00:05:16.113Z,71.46
2019-02-22T00:07:45.384Z,72.71
2019-02-22T00:10:14.687Z,71.38
2019-02-22T00:12:44.021Z,71.55
2019-02-22T00:15:13.352Z,70.76
2019-02-22T00:17:42.728Z,70.63
2019-02-22T00:20:12.031Z,70.17
2019-02-22T00:22:41.380Z,70.06
2019-02-22T00:25:10.669Z,69.84
2019-02-22T00:27:39.961Z,71.16
2019-02-22T00:30:09.322Z,72.04
2019-02-22T00:32:38.667Z,72.20
2019-02-22T00:35:07.969Z,72.10
2019-02-22T00:37:37.283Z,71.48
2019-02-22T00:40:07.625Z,71.29
2019-02-22T00:42:37.079Z,71.32
2019-02-22T00:45:06.787Z,70.38
2019-02-22T00:47:36.223Z,71.17
2019-02-22T00:50:05.828Z,71.06
2019-02-22T00:52:35.343Z,72.02
2019-02-22T00:55:06.151Z,71.15
2019-02-22T00:57:35.627Z,70.17
2019-02-22T01:00:05.221Z,71.67
2019-02-22T01:02:34.552Z,70.81
2019-02-22T01:05:03.942Z,71.58
2019-02-22T01:07:33.334Z,71.85
2019-02-22T01:10:03.972Z,71.87
2019-02-22T01:12:33.348Z,73.65
2019-02-22T01:15:02.623Z,73.90
2019-02-22T01:17:31.979Z,73.59
2019-02-22T01:20:01.284Z,73.44
2019-02-22T01:22:30.653Z,72.69
2019-02-22T01:25:01.375Z,71.87
2019-02-22T01:27:31.808Z,71.32
2019-02-22T01:30:01.171Z,72.29
2019-02-22T01:32:30.479Z,71.85
2019-02-22T01:34:59.814Z,71.42
2019-02-22T01:37:29.099Z,71.72
2019-02-22T01:39:58.567Z,71.58
2019-02-22T01:42:29.581Z,71.40
2019-02-22T01:44:59.029Z,72.21
2019-02-22T01:47:28.276Z,71.47
2019-02-22T01:49:57.614Z,73.69
2019-02-22T01:52:27.011Z,73.10
2019-02-22T01:55:00.794Z,73.53
2019-02-22T01:57:27.510Z,73.56
2019-02-22T01:59:57.947Z,72.23
2019-02-22T02:02:27.260Z,73.91
2019-02-22T02:04:56.585Z,71.58
2019-02-22T02:07:26.036Z,70.90
2019-02-22T02:09:55.583Z,70.22
2019-02-22T02:12:25.075Z,68.63
2019-02-22T02:14:54.497Z,69.24
2019-02-22T02:17:26.684Z,67.98
2019-02-22T02:19:56.066Z,67.98
2019-02-22T02:22:28.316Z,67.61
2019-02-22T02:24:57.635Z,69.15
2019-02-22T02:27:28.707Z,69.74
2019-02-22T02:29:58.011Z,69.11
2019-02-22T02:32:30.342Z,68.49
2019-02-22T02:35:00.614Z,69.34
2019-02-22T02:37:31.241Z,68.05
2019-02-22T02:40:02.798Z,69.67
2019-02-22T02:42:31.698Z,69.30
2019-02-22T02:45:02.282Z,71.20
2019-02-22T02:47:34.149Z,69.87
2019-02-22T02:50:02.712Z,69.97
2019-02-22T02:52:32.093Z,70.71
2019-02-22T02:55:01.366Z,70.93
2019-02-22T02:57:30.716Z,71.42
2019-02-22T03:00:00.024Z,70.99
2019-02-22T03:02:31.707Z,71.19
2019-02-22T03:05:00.990Z,71.07
2019-02-22T03:07:41.700Z,70.71
2019-02-22T03:10:10.994Z,71.62
2019-02-22T03:12:40.292Z,72.70
2019-02-22T03:15:11.310Z,73.50
2019-02-22T03:17:40.639Z,73.62
2019-02-22T03:20:10.165Z,73.13
2019-02-22T03:22:44.203Z,73.35
2019-02-22T03:25:15.015Z,73.08
2019-02-22T03:27:44.416Z,73.20
2019-02-22T03:30:13.928Z,73.25
2019-02-22T03:32:43.374Z,72.93
2019-02-22T03:35:12.759Z,72.92
2019-02-22T03:37:44.903Z,72.09
2019-02-22T03:40:17.030Z,73.42
2019-02-22T03:42:46.416Z,72.52
2019-02-22T03:45:15.820Z,73.16
2019-02-22T03:47:46.787Z,73.62
2019-02-22T03:50:19.021Z,72.97
2019-02-22T03:53:07.713Z,73.49
2019-02-22T03:55:36.951Z,74.02
2019-02-22T03:58:06.235Z,72.41
2019-02-22T04:00:35.511Z,72.37
2019-02-22T04:03:04.839Z,72.15
2019-02-22T04:05:34.196Z,73.99
2019-02-22T04:08:03.463Z,72.94
2019-02-22T04:10:32.701Z,72.93
2019-02-22T04:13:01.923Z,72.33
2019-02-22T04:15:31.176Z,72.85
2019-02-22T04:18:00.417Z,71.86
2019-02-22T04:20:29.686Z,74.14
2019-02-22T04:22:58.985Z,73.33
2019-02-22T04:25:28.242Z,72.62
2019-02-22T04:27:57.480Z,71.58
2019-02-22T04:30:26.754Z,72.46
2019-02-22T04:32:55.991Z,71.87
2019-02-22T04:35:25.245Z,71.86
2019-02-22T04:37:54.497Z,72.37
2019-02-22T04:40:23.755Z,72.03
2019-02-22T04:42:52.991Z,72.71
2019-02-22T04:45:22.278Z,72.77
2019-02-22T04:47:51.566Z,72.99
2019-02-22T04:50:20.812Z,72.90
2019-02-22T04:52:50.084Z,73.46
2019-02-22T04:55:19.351Z,74.30
2019-02-22T04:57:48.603Z,74.67
2019-02-22T05:00:17.846Z,73.82
2019-02-22T05:02:47.085Z,73.47
2019-02-22T05:05:16.361Z,71.85
2019-02-22T05:07:45.605Z,71.21
2019-02-22T05:10:14.868Z,68.78
2019-02-22T05:12:44.147Z,67.71
2019-02-22T05:15:13.435Z,67.18
2019-02-22T05:17:42.684Z,68.29
2019-02-22T05:20:11.966Z,68.19
2019-02-22T05:22:41.240Z,67.84
2019-02-22T05:25:10.533Z,67.22
2019-02-22T05:27:39.796Z,67.03
2019-02-22T05:30:09.309Z,66.34
2019-02-22T05:32:38.601Z,65.94
2019-02-22T05:35:07.946Z,67.29
2019-02-22T05:37:37.242Z,66.20
2019-02-22T05:40:06.649Z,68.57
2019-02-22T05:42:35.907Z,68.60
2019-02-22T05:45:05.169Z,67.96
2019-02-22T05:47:34.460Z,67.95
2019-02-22T05:50:03.710Z,67.31
2019-02-22T05:52:32.977Z,67.27
2019-02-22T05:55:02.220Z,66.91
2019-02-22T05:57:31.505Z,66.89
2019-02-22T06:00:00.745Z,67.73
2019-02-22T06:02:30.022Z,67.94
2019-02-22T06:04:59.236Z,68.10
2019-02-22T06:07:28.494Z,68.28
2019-02-22T06:09:58.136Z,68.32
2019-02-22T06:12:34.541Z,67.69
2019-02-22T06:14:58.563Z,67.03
2019-02-22T06:17:27.891Z,67.01
2019-02-22T06:19:57.252Z,67.69
2019-02-22T06:22:29.833Z,69.00
2019-02-22T06:24:57.559Z,68.78
2019-02-22T06:27:26.899Z,68.12
2019-02-22T06:29:56.074Z,67.11
2019-02-22T06:32:25.309Z,67.87
2019-02-22T06:34:54.735Z,67.54
2019-02-22T06:37:24.033Z,67.07
2019-02-22T06:39:53.284Z,67.25
2019-02-22T06:42:22.553Z,67.38
2019-02-22T06:44:51.822Z,69.16
2019-02-22T06:47:22.906Z,69.04
2019-02-22T06:49:52.328Z,67.86
2019-02-22T06:52:21.647Z,67.47
2019-02-22T06:54:50.902Z,68.14
2019-02-22T06:57:20.165Z,68.77
2019-02-22T06:59:49.509Z,68.87
2019-02-22T07:02:18.795Z,69.29
2019-02-22T07:04:48.082Z,69.66
2019-02-22T07:07:17.345Z,70.54
2019-02-22T07:09:46.621Z,69.29
2019-02-22T07:12:26.945Z,69.46
2019-02-22T07:14:56.276Z,69.26
2019-02-22T07:17:25.547Z,70.25
2019-02-22T07:19:54.817Z,69.72
2019-02-22T07:22:24.115Z,70.37
2019-02-22T07:24:53.408Z,71.10
2019-02-22T07:27:22.670Z,70.40
2019-02-22T07:29:51.942Z,71.96
2019-02-22T07:32:21.184Z,70.04
2019-02-22T07:34:50.450Z,70.11
2019-02-22T07:37:19.768Z,70.75
2019-02-22T07:39:49.016Z,70.94
2019-02-22T07:42:18.308Z,67.53
2019-02-22T07:44:47.535Z,65.86
2019-02-22T07:47:16.866Z,66.04
2019-02-22T07:49:46.098Z,69.45
2019-02-22T07:52:15.348Z,67.90
2019-02-22T07:54:44.618Z,67.56
2019-02-22T07:57:13.924Z,69.35
2019-02-22T07:59:43.219Z,69.57
2019-02-22T08:02:12.525Z,69.34
2019-02-22T08:04:41.792Z,68.37
2019-02-22T08:07:11.043Z,69.12
2019-02-22T08:09:40.324Z,67.41
2019-02-22T08:12:09.571Z,68.28
2019-02-22T08:14:38.822Z,70.23
2019-02-22T08:17:08.110Z,69.31
2019-02-22T08:19:37.337Z,69.29
2019-02-22T08:22:06.648Z,68.19
2019-02-22T08:24:35.914Z,71.21
2019-02-22T08:27:05.235Z,68.62
2019-02-22T08:29:34.484Z,69.26
2019-02-22T08:32:03.838Z,68.90
2019-02-22T08:34:33.099Z,67.37
2019-02-22T08:37:02.406Z,70.41
2019-02-22T08:39:31.686Z,68.36
2019-02-22T08:42:00.954Z,69.54
2019-02-22T08:44:30.249Z,70.46
2019-02-22T08:46:59.514Z,69.74
2019-02-22T08:49:28.832Z,68.75
2019-02-22T08:51:58.287Z,70.17
2019-02-22T08:54:27.609Z,69.60
2019-02-22T08:56:56.990Z,70.49
2019-02-22T08:59:26.272Z,70.42
2019-02-22T09:01:55.513Z,68.63
2019-02-22T09:04:24.780Z,68.66
2019-02-22T09:06:54.000Z,71.25
2019-02-22T09:09:23.267Z,68.07
2019-02-22T09:11:52.626Z,67.25
2019-02-22T09:14:21.917Z,66.85
2019-02-22T09:16:51.178Z,66.33
2019-02-22T09:19:20.436Z,68.53
2019-02-22T09:21:49.773Z,69.34
2019-02-22T09:24:19.059Z,68.75
2019-02-22T09:26:48.337Z,69.47
2019-02-22T09:29:17.645Z,69.96
2019-02-22T09:31:46.879Z,69.86
2019-02-22T09:34:16.154Z,69.55
2019-02-22T09:36:45.434Z,67.66
2019-02-22T09:39:15.194Z,67.53
2019-02-22T09:41:44.461Z,67.73
2019-02-22T09:44:13.713Z,67.36
2019-02-22T09:46:43.038Z,66.95
2019-02-22T09:49:12.269Z,68.22
2019-02-22T09:51:41.567Z,68.25
2019-02-22T09:54:10.806Z,68.29
2019-02-22T09:56:40.070Z,67.99
2019-02-22T09:59:09.349Z,66.58
2019-02-22T10:01:38.606Z,65.23
2019-02-22T10:04:07.848Z,63.64
2019-02-22T10:06:37.109Z,63.09
2019-02-22T10:09:06.645Z,62.68
2019-02-22T10:11:35.911Z,63.61
2019-02-22T10:14:06.978Z,62.28
2019-02-22T10:16:36.146Z,63.12
2019-02-22T10:19:05.368Z,62.19
2019-02-22T10:21:34.661Z,62.14
2019-02-22T10:24:03.958Z,61.79
2019-02-22T10:26:33.250Z,60.24
2019-02-22T10:29:02.514Z,61.41
2019-02-22T10:31:31.802Z,60.87
2019-02-22T10:34:01.059Z,59.33
2019-02-22T10:36:30.304Z,60.42
2019-02-22T10:38:59.600Z,60.89
2019-02-22T10:41:28.862Z,59.35
2019-02-22T10:43:58.132Z,60.95
2019-02-22T10:46:27.387Z,61.61
2019-02-22T10:48:56.634Z,62.07
2019-02-22T10:51:25.909Z,62.52
2019-02-22T10:53:55.199Z,62.33
2019-02-22T10:56:24.457Z,62.17
2019-02-22T10:58:53.722Z,59.71
2019-02-22T11:01:22.947Z,61.81
2019-02-22T11:03:52.191Z,59.77
2019-02-22T11:06:21.440Z,59.31
2019-02-22T11:08:50.733Z,57.86
2019-02-22T11:11:19.975Z,57.92
2019-02-22T11:13:49.300Z,56.04
2019-02-22T11:16:18.592Z,56.93
2019-02-22T11:18:47.867Z,54.95
2019-02-22T11:21:17.181Z,51.58
2019-02-22T11:23:46.588Z,52.90
2019-02-22T11:26:15.923Z,53.87
2019-02-22T11:28:45.193Z,53.83
2019-02-22T11:31:15.093Z,53.58
2019-02-22T11:33:44.384Z,52.68
2019-02-22T11:36:13.706Z,51.48
2019-02-22T11:38:42.967Z,51.19
2019-02-22T11:41:12.247Z,51.86
2019-02-22T11:43:41.523Z,50.40
2019-02-22T11:46:10.807Z,52.00
2019-02-22T11:48:40.232Z,51.96
2019-02-22T11:51:09.510Z,51.48
2019-02-22T11:53:38.756Z,52.70
2019-02-22T11:56:08.127Z,52.92
2019-02-22T11:58:37.368Z,51.54
2019-02-22T12:01:08.985Z,50.52
2019-02-22T12:03:38.285Z,48.16
2019-02-22T12:06:07.578Z,48.60
2019-02-22T12:08:36.809Z,48.44
2019-02-22T12:11:06.174Z,46.90
2019-02-22T12:13:35.465Z,47.32
2019-02-22T12:16:04.762Z,46.19
2019-02-22T12:18:36.443Z,48.33
2019-02-22T12:21:05.134Z,49.92
2019-02-22T12:23:34.450Z,50.33
2019-02-22T12:26:03.816Z,47.54
2019-02-22T12:28:33.083Z,48.40
2019-02-22T12:31:02.464Z,48.72
2019-02-22T12:33:31.722Z,49.05
2019-02-22T12:36:01.017Z,49.07
2019-02-22T12:38:30.318Z,48.10
2019-02-22T12:40:59.609Z,47.11
2019-02-22T12:43:28.841Z,47.13
2019-02-22T12:45:58.149Z,45.29
2019-02-22T12:48:27.516Z,45.29
2019-02-22T12:50:56.780Z,44.54
2019-02-22T12:53:26.202Z,43.75
2019-02-22T12:55:55.521Z,45.36
2019-02-22T12:58:24.962Z,44.30
2019-02-22T13:00:54.294Z,44.75
2019-02-22T13:03:23.621Z,45.10
2019-02-22T13:05:52.904Z,45.43
2019-02-22T13:08:22.184Z,47.08
2019-02-22T13:10:51.461Z,47.77
2019-02-22T13:13:20.784Z,47.76
2019-02-22T13:15:50.097Z,47.32
2019-02-22T13:18:19.392Z,48.02
2019-02-22T13:20:48.643Z,48.65
2019-02-22T13:23:17.973Z,47.51
2019-02-22T13:25:47.397Z,48.29
2019-02-22T13:28:16.680Z,46.93
2019-02-22T13:30:46.030Z,47.76
2019-02-22T13:33:15.450Z,46.64
2019-02-22T13:35:44.771Z,45.42
2019-02-22T13:38:14.058Z,44.53
2019-02-22T13:40:43.367Z,44.77
2019-02-22T13:43:12.697Z,43.62
2019-02-22T13:45:41.997Z,45.37
2019-02-22T13:48:11.264Z,44.68
2019-02-22T13:50:40.574Z,43.93
2019-02-22T13:53:09.861Z,45.35
2019-02-22T13:55:39.184Z,44.48
2019-02-22T13:58:08.455Z,45.21
2019-02-22T14:00:37.787Z,45.66
2019-02-22T14:03:07.052Z,44.47
2019-02-22T14:05:36.388Z,43.82
2019-02-22T14:08:05.714Z,44.84
2019-02-22T14:10:35.005Z,43.77
2019-02-22T14:13:04.308Z,42.76
2019-02-22T14:15:37.950Z,43.28
2019-02-22T14:18:04.679Z,43.35
2019-02-22T14:20:34.009Z,43.85
2019-02-22T14:23:03.801Z,44.31
2019-02-22T14:25:33.280Z,44.23
2019-02-22T14:28:02.602Z,43.47
2019-02-22T14:30:31.888Z,45.00
2019-02-22T14:33:01.147Z,45.71
2019-02-22T14:35:30.552Z,47.74
2019-02-22T14:38:02.325Z,47.57
2019-02-22T14:40:31.685Z,47.85
2019-02-22T14:43:03.386Z,46.85
2019-02-22T14:45:32.676Z,46.40
2019-02-22T14:48:01.922Z,47.44
2019-02-22T14:50:31.208Z,47.17
2019-02-22T14:53:00.520Z,47.16
2019-02-22T14:55:29.881Z,47.15
2019-02-22T14:58:01.226Z,48.50
2019-02-22T15:00:30.534Z,47.88
2019-02-22T15:02:59.837Z,47.19
2019-02-22T15:05:29.212Z,45.92
2019-02-22T15:07:58.534Z,45.76
2019-02-22T15:10:27.843Z,45.90
2019-02-22T15:12:57.208Z,45.25
2019-02-22T15:15:37.877Z,46.20
2019-02-22T15:18:07.765Z,47.72
2019-02-22T15:20:36.994Z,47.58
2019-02-22T15:23:06.299Z,47.95
2019-02-22T15:25:35.881Z,48.27
2019-02-22T15:28:06.498Z,47.59
2019-02-22T15:30:36.163Z,47.79
2019-02-22T15:33:05.775Z,47.12
2019-02-22T15:35:35.205Z,49.12
2019-02-22T15:38:04.722Z,48.83
2019-02-22T15:40:35.228Z,48.77
2019-02-22T15:43:04.563Z,49.14
2019-02-22T15:45:33.922Z,49.53
2019-02-22T15:48:04.731Z,49.73
2019-02-22T15:50:34.029Z,49.07
2019-02-22T15:53:03.460Z,48.54
2019-02-22T15:55:32.830Z,48.50
2019-02-22T15:58:02.110Z,47.93
2019-02-22T16:00:31.922Z,49.71
2019-02-22T16:03:01.224Z,50.70
2019-02-22T16:05:35.833Z,52.59
2019-02-22T16:08:07.403Z,51.45
2019-02-22T16:10:36.344Z,51.23
2019-02-22T16:13:14.369Z,51.95
2019-02-22T16:15:43.686Z,51.69
2019-02-22T16:18:15.582Z,51.42
2019-02-22T16:20:48.074Z,50.43
2019-02-22T16:23:17.516Z,51.70
2019-02-22T16:25:49.235Z,50.85
2019-02-22T16:28:18.535Z,50.86
2019-02-22T16:30:48.119Z,51.28
2019-02-22T16:33:17.389Z,52.67
2019-02-22T16:35:47.072Z,52.56
2019-02-22T16:38:16.363Z,52.87
2019-02-22T16:40:45.674Z,52.45
2019-02-22T16:43:14.930Z,53.08
2019-02-22T16:45:44.226Z,51.68
2019-02-22T16:48:13.649Z,52.50
2019-02-22T16:50:45.319Z,52.48
2019-02-22T16:53:14.622Z,52.89
2019-02-22T16:55:44.112Z,53.40
2019-02-22T16:58:13.418Z,53.50
2019-02-22T17:01:32.738Z,53.89
2019-02-22T17:04:01.784Z,54.33
2019-02-22T17:06:34.267Z,53.52
2019-02-22T17:09:06.787Z,54.08
2019-02-22T17:11:36.096Z,53.13
2019-02-22T17:14:05.450Z,53.91
2019-02-22T17:16:45.276Z,53.24
2019-02-22T17:19:34.130Z,53.22
2019-02-22T17:22:09.741Z,53.52
2019-02-22T17:24:40.739Z,53.50
2019-02-22T17:27:31.262Z,52.91
2019-02-22T17:30:00.734Z,53.09
2019-02-22T17:32:33.933Z,53.39
2019-02-22T17:35:04.429Z,54.13
2019-02-22T17:37:33.794Z,53.56
2019-02-22T17:40:03.117Z,53.29
2019-02-22T17:42:32.430Z,53.86
2019-02-22T17:45:01.732Z,54.21
2019-02-22T17:47:33.836Z,55.06
2019-02-22T17:50:03.104Z,54.32
2019-02-22T17:52:32.381Z,54.42
2019-02-22T17:55:01.752Z,54.83
2019-02-22T17:57:33.928Z,55.58
2019-02-22T18:00:03.313Z,55.48
2019-02-22T18:02:32.625Z,55.64
2019-02-22T18:05:02.014Z,55.39
2019-02-22T18:07:34.314Z,55.80
2019-02-22T18:10:03.651Z,55.68
2019-02-22T18:12:32.961Z,55.84
2019-02-22T18:15:02.264Z,56.02
2019-02-22T18:17:34.497Z,55.70
2019-02-22T18:20:03.792Z,56.24
2019-02-22T18:22:33.082Z,56.49
2019-02-22T18:25:02.462Z,56.56
2019-02-22T18:27:35.959Z,57.48
2019-02-22T18:30:05.853Z,57.86
2019-02-22T18:32:35.179Z,58.75
2019-02-22T18:35:31.703Z,58.38
2019-02-22T18:38:01.169Z,58.48
2019-02-22T18:40:33.562Z,59.06
2019-02-22T18:43:02.934Z,59.45
2019-02-22T18:45:35.335Z,60.06
2019-02-22T18:48:04.614Z,60.57
2019-02-22T18:50:33.966Z,59.39
2019-02-22T18:53:03.244Z,59.33
2019-02-22T18:55:32.590Z,60.60
2019-02-22T18:58:01.901Z,61.15
2019-02-22T19:00:34.360Z,60.53
2019-02-22T19:03:03.668Z,59.86
2019-02-22T19:05:33.058Z,60.95
2019-02-22T19:08:02.363Z,61.26
2019-02-22T19:10:31.789Z,61.64
2019-02-22T19:13:01.114Z,62.04
2019-02-22T19:15:33.252Z,61.65
2019-02-22T19:18:02.609Z,61.83
2019-02-22T19:20:35.117Z,63.01
2019-02-22T19:23:04.448Z,62.59
2019-02-22T19:25:33.718Z,63.03
2019-02-22T19:28:03.076Z,63.43
2019-02-22T19:30:32.363Z,63.63
2019-02-22T19:33:01.752Z,63.31
2019-02-22T19:35:33.899Z,64.41
2019-02-22T19:43:44.776Z,64.88
2019-02-22T19:46:14.060Z,64.58
2019-02-22T19:48:43.408Z,65.00
2019-02-22T19:51:12.712Z,64.45
2019-02-22T19:53:42.046Z,64.88
2019-02-22T19:56:11.373Z,64.77
2019-02-22T19:58:50.589Z,65.58
2019-02-22T20:01:19.944Z,64.86
2019-02-22T20:03:49.242Z,65.30
2019-02-22T20:06:22.997Z,66.28
2019-02-22T20:08:52.330Z,65.86
2019-02-22T20:11:21.930Z,66.88
2019-02-22T20:13:51.458Z,67.35
2019-02-22T20:16:20.937Z,66.67
2019-02-22T20:18:50.341Z,67.18
2019-02-22T20:21:19.799Z,67.21
2019-02-22T20:24:17.738Z,67.84
2019-02-22T20:26:47.075Z,68.28
2019-02-22T20:29:16.681Z,67.64
2019-02-22T20:31:46.036Z,67.87
2019-02-22T20:34:15.572Z,68.23
2019-02-22T20:36:44.950Z,67.18
2019-02-22T20:39:14.271Z,67.49
2019-02-22T20:41:46.996Z,68.29
2019-02-22T20:44:16.366Z,68.56
2019-02-22T20:47:00.978Z,67.96
2019-02-22T20:49:30.880Z,68.06
2019-02-22T20:52:00.385Z,69.13
2019-02-22T20:54:29.774Z,69.28
2019-02-22T20:56:59.114Z,68.56
2019-02-22T20:59:52.353Z,68.99
2019-02-22T21:02:20.708Z,68.74
2019-02-22T21:05:10.711Z,68.88
2019-02-22T21:07:40.005Z,69.38
2019-02-22T21:10:11.675Z,69.72
2019-02-22T21:12:41.133Z,69.86
2019-02-22T21:19:30.339Z,70.41
2019-02-22T21:26:29.858Z,70.37
2019-02-22T21:37:31.692Z,69.51
2019-02-22T21:55:30.961Z,69.44
2019-02-22T22:01:40.855Z,69.73
2019-02-22T22:04:10.335Z,69.25
2019-02-22T22:06:39.717Z,69.65
2019-02-22T22:09:09.173Z,68.92
2019-02-22T22:11:38.604Z,69.93
2019-02-22T22:14:08.046Z,70.19
2019-02-22T22:16:37.504Z,69.58
2019-02-22T22:19:06.855Z,69.29
2019-02-22T22:21:36.291Z,69.34
2019-02-22T22:24:05.747Z,69.21
2019-02-22T22:26:35.103Z,69.81
2019-02-22T22:29:04.588Z,70.48
2019-02-22T22:31:33.966Z,70.06
2019-02-22T22:34:03.301Z,69.48
2019-02-22T22:36:32.629Z,70.39
2019-02-22T22:39:01.959Z,70.66
2019-02-22T22:41:31.279Z,70.94
2019-02-22T22:44:00.735Z,70.99
2019-02-22T22:46:36.929Z,70.55
2019-02-22T22:49:01.421Z,70.45
2019-02-22T22:51:30.752Z,71.03
2019-02-22T22:54:00.137Z,71.04
2019-02-22T22:56:29.436Z,70.97
2019-02-22T22:58:58.808Z,70.82
2019-02-22T23:01:29.902Z,70.32
2019-02-22T23:03:59.337Z,70.77
2019-02-22T23:06:28.736Z,71.43
2019-02-22T23:08:58.155Z,71.53
2019-02-22T23:11:27.571Z,71.83
2019-02-22T23:13:56.977Z,71.96
2019-02-22T23:16:26.342Z,72.38
2019-02-22T23:19:01.812Z,71.14
2019-02-22T23:21:26.789Z,71.95
2019-02-22T23:23:56.133Z,71.42
2019-02-22T23:26:25.539Z,70.61
2019-02-22T23:28:55.950Z,71.63
2019-02-22T23:31:25.249Z,72.21
2019-02-22T23:33:54.565Z,71.69
2019-02-22T23:36:23.941Z,71.26
2019-02-22T23:38:53.305Z,71.91
2019-02-22T23:41:22.630Z,71.55
2019-02-22T23:43:52.035Z,71.02
2019-02-22T23:46:21.388Z,71.94
2019-02-22T23:48:50.704Z,71.25
2019-02-22T23:51:20.058Z,71.51
2019-02-22T23:53:49.420Z,72.56
2019-02-22T23:56:18.769Z,72.16
2019-02-22T23:58:48.061Z,72.70
